Time;durP1;ratioP1;P1;durP2;ratioP2;P2;SDS_P1;SDS_P2;PMS_P1;PMS_P2;Temp;Humidity;BMP_temperature;BMP_pressure;BME280_temperature;BME280_humidity;BME280_pressure;Samples;Min_cycle;Max_cycle;Signal;HPM_P1;HPM_P2
2023/01/19 00:01:10;;;;;;;55.08;30.08;;;;;;;-3.35;89.15;99753.66;7397419;19;20011;-69
2023/01/19 00:03:38;;;;;;;30.92;19.52;;;;;;;-3.36;89.27;99754.50;7396484;19;20015;-69
2023/01/19 00:06:07;;;;;;;34.08;20.35;;;;;;;-3.36;89.34;99765.63;7396463;19;20028;-69
2023/01/19 00:08:39;;;;;;;32.25;20.02;;;;;;;-3.36;89.50;99759.63;7398661;19;20078;-69
2023/01/19 00:11:08;;;;;;;34.08;19.00;;;;;;;-3.36;89.26;99764.75;7395901;19;20379;-69
2023/01/19 00:13:37;;;;;;;41.53;19.50;;;;;;;-3.37;89.19;99766.47;7397317;19;20028;-68
2023/01/19 00:16:07;;;;;;;30.98;19.20;;;;;;;-3.37;89.25;99768.19;7398233;19;20031;-69
2023/01/19 00:18:36;;;;;;;30.60;19.13;;;;;;;-3.40;89.30;99765.53;7398284;19;20018;-68
2023/01/19 00:21:04;;;;;;;35.63;20.13;;;;;;;-3.42;89.10;99764.63;7396412;19;20015;-68
2023/01/19 00:23:33;;;;;;;34.17;20.17;;;;;;;-3.42;89.33;99770.66;7397068;19;20031;-69
2023/01/19 00:26:04;;;;;;;34.10;21.48;;;;;;;-3.45;89.60;99779.16;7397545;19;20018;-68
2023/01/19 00:28:32;;;;;;;36.70;20.33;;;;;;;-3.48;89.21;99776.50;7398626;19;20035;-68
2023/01/19 00:31:01;;;;;;;36.60;20.60;;;;;;;-3.49;89.38;99777.38;7397745;19;20481;-70
2023/01/19 00:33:29;;;;;;;29.73;18.95;;;;;;;-3.51;89.23;99783.31;7397093;19;20019;-69
2023/01/19 00:35:58;;;;;;;37.45;20.02;;;;;;;-3.54;89.11;99794.34;7397709;19;20380;-71
2023/01/19 00:38:26;;;;;;;33.78;19.23;;;;;;;-3.57;89.25;99794.28;7398068;19;20018;-69
2023/01/19 00:40:54;;;;;;;34.33;18.83;;;;;;;-3.58;89.34;99797.69;7395786;19;20018;-66
2023/01/19 00:43:23;;;;;;;33.50;19.38;;;;;;;-3.60;89.38;99795.09;7398176;19;20439;-67
2023/01/19 00:45:52;;;;;;;35.28;19.20;;;;;;;-3.60;89.11;99794.25;7395872;19;20021;-67
2023/01/19 00:48:20;;;;;;;34.15;19.90;;;;;;;-3.59;89.15;99795.94;7397610;19;20018;-67
2023/01/19 00:50:50;;;;;;;39.17;21.40;;;;;;;-3.60;89.20;99789.97;7397284;19;20536;-67
2023/01/19 00:53:18;;;;;;;35.42;19.45;;;;;;;-3.60;89.09;99794.25;7396864;19;20024;-67
2023/01/19 00:55:47;;;;;;;34.55;19.88;;;;;;;-3.61;89.06;99795.06;7395655;19;20019;-67
2023/01/19 00:58:15;;;;;;;31.45;18.10;;;;;;;-3.62;89.07;99796.75;7397238;19;20031;-72
2023/01/19 01:00:46;;;;;;;35.08;19.85;;;;;;;-3.63;89.24;99799.28;7395416;19;20006;-70
2023/01/19 01:03:15;;;;;;;34.17;19.85;;;;;;;-3.65;89.35;99806.06;7396207;19;20014;-70
2023/01/19 01:05:44;;;;;;;34.63;19.83;;;;;;;-3.67;89.26;99800.91;7397107;19;20022;-70
2023/01/19 01:08:12;;;;;;;37.08;19.85;;;;;;;-3.68;89.34;99806.00;7395275;19;20387;-70
2023/01/19 01:10:40;;;;;;;30.90;18.42;;;;;;;-3.70;89.20;99802.53;7396692;19;20031;-70
2023/01/19 01:13:09;;;;;;;36.95;19.40;;;;;;;-3.72;88.86;99799.09;7395046;19;20035;-71
2023/01/19 01:15:37;;;;;;;32.22;17.63;;;;;;;-3.76;89.18;99801.59;7396794;19;20022;-70
2023/01/19 01:18:08;;;;;;;29.52;18.70;;;;;;;-3.76;89.21;99808.44;7396691;19;20014;-70
2023/01/19 01:20:37;;;;;;;32.75;18.73;;;;;;;-3.77;89.46;99801.56;7396215;19;20026;-72
2023/01/19 01:23:12;;;;;;;32.22;18.67;;;;;;;-3.78;89.27;99808.41;7396026;19;20014;-71
2023/01/19 01:25:41;;;;;;;33.70;19.00;;;;;;;-3.79;89.35;99800.66;7396404;19;20015;-71
2023/01/19 01:28:11;;;;;;;31.63;18.98;;;;;;;-3.79;89.18;99809.22;7395948;19;20018;-71
2023/01/19 01:30:40;;;;;;;31.13;19.55;;;;;;;-3.80;89.27;99812.63;7396236;19;20037;-71
2023/01/19 01:33:12;;;;;;;31.33;18.60;;;;;;;-3.80;89.13;99817.75;7395739;19;20018;-71
2023/01/19 01:35:40;;;;;;;31.10;19.08;;;;;;;-3.81;88.90;99808.31;7396653;19;20019;-71
2023/01/19 01:38:09;;;;;;;30.98;19.05;;;;;;;-3.81;89.13;99808.31;7395673;19;20517;-72
2023/01/19 01:40:41;;;;;;;28.55;17.83;;;;;;;-3.82;89.06;99808.28;7395303;19;20022;-71
2023/01/19 01:43:19;;;;;;;30.95;17.98;;;;;;;-3.85;89.09;99808.25;7395797;19;20022;-72
2023/01/19 01:45:48;;;;;;;31.15;17.55;;;;;;;-3.86;88.92;99822.72;7396257;19;20017;-72
2023/01/19 01:48:24;;;;;;;25.80;17.50;;;;;;;-3.87;88.89;99822.69;7395756;19;20031;-72
2023/01/19 01:53:38;;;;;;;34.97;18.05;;;;;;;-3.89;88.98;99816.66;7395019;19;20014;-71
2023/01/19 01:56:10;;;;;;;31.75;19.58;;;;;;;-3.91;88.87;99821.78;7395346;19;20014;-70
2023/01/19 01:58:40;;;;;;;30.63;17.80;;;;;;;-3.92;88.87;99822.59;7395933;19;20023;-70
2023/01/19 02:03:53;;;;;;;28.33;17.60;;;;;;;-3.97;88.74;99826.75;7394457;19;20031;-70
2023/01/19 02:06:22;;;;;;;32.03;17.63;;;;;;;-4.00;89.04;99824.13;7395786;19;20086;-70
2023/01/19 02:14:20;;;;;;;31.10;17.42;;;;;;;-4.07;88.81;99829.94;7394421;19;20037;-68
2023/01/19 02:16:49;;;;;;;27.83;17.27;;;;;;;-4.10;88.76;99830.75;7395034;19;20014;-67
2023/01/19 02:19:26;;;;;;;24.08;15.45;;;;;;;-4.11;88.59;99826.44;7395235;19;20031;-67
2023/01/19 02:22:00;;;;;;;29.30;16.48;;;;;;;-4.14;88.83;99829.81;7400175;19;20018;-68
2023/01/19 02:24:32;;;;;;;32.22;16.90;;;;;;;-4.17;88.63;99832.31;7399901;19;20379;-67
2023/01/19 02:27:01;;;;;;;24.27;14.68;;;;;;;-4.18;88.82;99830.56;7402049;19;20014;-67
2023/01/19 02:29:30;;;;;;;27.13;15.70;;;;;;;-4.20;88.87;99827.09;7402259;19;20013;-68
2023/01/19 02:32:00;;;;;;;29.63;16.23;;;;;;;-4.20;88.84;99849.28;7401891;19;20422;-68
2023/01/19 02:34:31;;;;;;;31.55;16.13;;;;;;;-4.22;88.79;99839.03;7400006;19;20040;-68
2023/01/19 02:37:05;;;;;;;30.33;15.57;;;;;;;-4.23;88.94;99837.28;7399594;19;20031;-68
2023/01/19 02:39:39;;;;;;;26.67;15.68;;;;;;;-4.26;88.73;99832.94;7401652;19;20488;-68
2023/01/19 02:42:09;;;;;;;;;;;;;;;-4.26;88.92;99832.94;7400440;19;20040;-68
2023/01/19 02:44:39;;;;;;;27.58;13.82;;;;;;;-4.27;88.49;99830.38;7399015;19;20342;-68
2023/01/19 02:47:08;;;;;;;25.38;15.73;;;;;;;-4.28;88.71;99831.19;7401457;19;20082;-68
2023/01/19 02:49:37;;;;;;;28.63;16.73;;;;;;;-4.29;88.58;99816.66;7398923;19;20022;-68
2023/01/19 02:52:06;;;;;;;27.83;15.48;;;;;;;-4.32;88.37;99820.00;7401219;19;20503;-68
2023/01/19 02:54:49;;;;;;;29.10;16.05;;;;;;;-4.32;88.56;99824.22;7399182;19;20110;-67
2023/01/19 02:57:38;;;;;;;25.23;15.45;;;;;;;-4.32;88.61;99822.56;7401002;19;20032;-67
2023/01/19 03:00:19;;;;;;;26.13;14.90;;;;;;;-4.32;88.45;99819.13;7397765;19;20010;-68
2023/01/19 03:02:59;;;;;;;26.40;15.80;;;;;;;-4.32;88.57;99826.78;7401351;19;20014;-68
2023/01/19 03:05:47;;;;;;;24.60;14.50;;;;;;;-4.32;88.56;99827.69;7400841;19;20025;-68
2023/01/19 03:08:23;;;;;;;23.45;14.63;;;;;;;-4.33;88.63;99825.94;7400697;19;20014;-68
2023/01/19 03:11:03;;;;;;;25.33;15.55;;;;;;;-4.33;88.54;99827.66;7401447;19;20018;-68
2023/01/19 03:13:42;;;;;;;26.23;16.48;;;;;;;-4.35;88.58;99826.75;7397989;19;20014;-67
2023/01/19 03:16:17;;;;;;;26.77;16.60;;;;;;;-4.35;88.50;99819.06;7400389;19;20027;-68
2023/01/19 03:18:51;;;;;;;27.10;16.67;;;;;;;-4.36;88.62;99819.88;7398566;19;20018;-68
2023/01/19 03:21:21;;;;;;;22.13;15.40;;;;;;;-4.37;88.46;99815.56;7399734;19;20029;-69
2023/01/19 03:23:52;;;;;;;23.92;16.13;;;;;;;-4.38;88.51;99829.25;7399939;19;20022;-69
2023/01/19 03:26:29;;;;;;;25.25;15.38;;;;;;;-4.38;88.50;99821.56;7400431;19;20533;-69
2023/01/19 03:29:01;;;;;;;23.52;15.05;;;;;;;-4.39;88.53;99825.78;7399969;19;20011;-68
2023/01/19 03:31:33;;;;;;;30.77;16.58;;;;;;;-4.42;88.19;99824.03;7397051;19;20364;-69
2023/01/19 03:34:06;;;;;;;28.95;15.93;;;;;;;-4.44;88.18;99823.13;7398342;19;20031;-69
2023/01/19 03:36:39;;;;;;;25.03;16.70;;;;;;;-4.46;88.20;99826.47;7400233;19;20018;-69
2023/01/19 03:39:10;;;;;;;30.48;17.35;;;;;;;-4.48;88.26;99834.13;7400061;19;20023;-68
2023/01/19 03:41:44;;;;;;;27.10;17.15;;;;;;;-4.49;88.27;99826.41;7397868;19;20035;-68
2023/01/19 03:44:13;;;;;;;27.90;16.60;;;;;;;-4.51;88.05;99825.50;7398400;19;20026;-69
2023/01/19 03:46:42;;;;;;;25.10;16.42;;;;;;;-4.51;88.31;99835.72;7397405;19;20014;-68
2023/01/19 03:49:11;;;;;;;26.45;15.95;;;;;;;-4.52;88.41;99837.44;7397364;19;20022;-68
2023/01/19 03:51:41;;;;;;;24.33;17.10;;;;;;;-4.52;87.99;99842.56;7399629;19;20023;-69
2023/01/19 03:54:12;;;;;;;26.65;16.48;;;;;;;-4.53;88.17;99840.81;7397864;19;20035;-67
2023/01/19 03:56:43;;;;;;;24.77;15.77;;;;;;;-4.55;88.12;99832.22;7399027;19;20019;-68
2023/01/19 03:59:11;;;;;;;28.98;18.58;;;;;;;-4.55;87.91;99839.06;7396532;19;20010;-68
2023/01/19 04:01:40;;;;;;;29.70;17.77;;;;;;;-4.57;88.06;99836.47;7396752;19;20022;-69
2023/01/19 04:04:08;;;;;;;25.55;16.83;;;;;;;-4.59;88.21;99839.00;7397485;19;20026;-68
2023/01/19 04:06:37;;;;;;;28.25;16.67;;;;;;;-4.58;87.87;99847.53;7398582;19;20018;-68
2023/01/19 04:09:06;;;;;;;26.83;17.05;;;;;;;-4.61;87.93;99845.75;7398871;19;20018;-68
2023/01/19 04:11:34;;;;;;;28.25;16.40;;;;;;;-4.61;88.12;99852.59;7398677;19;20021;-69
2023/01/19 04:14:05;;;;;;;31.45;18.10;;;;;;;-4.61;88.16;99850.03;7396677;19;20473;-68
2023/01/19 04:16:34;;;;;;;33.85;18.35;;;;;;;-4.61;88.06;99844.91;7398304;19;20014;-68
2023/01/19 04:19:02;;;;;;;25.60;16.70;;;;;;;-4.61;88.12;99844.91;7398619;19;20022;-67
2023/01/19 04:21:31;;;;;;;29.70;16.48;;;;;;;-4.62;88.26;99853.41;7397638;19;20019;-68
2023/01/19 04:23:59;;;;;;;23.67;15.95;;;;;;;-4.61;88.25;99850.88;7396761;19;20018;-72
2023/01/19 04:26:28;;;;;;;29.75;16.92;;;;;;;-4.61;88.11;99850.03;7396260;19;20018;-68
2023/01/19 04:28:57;;;;;;;28.85;17.25;;;;;;;-4.61;88.24;99860.25;7396711;19;20014;-68
2023/01/19 04:31:28;;;;;;;28.85;17.02;;;;;;;-4.59;88.22;99853.47;7397729;19;20019;-68
2023/01/19 04:33:57;;;;;;;24.52;15.70;;;;;;;-4.59;88.45;99851.78;7397206;19;20044;-68
2023/01/19 04:36:26;;;;;;;21.48;14.63;;;;;;;-4.58;88.38;99844.97;7398104;19;20063;-68
2023/01/19 04:38:54;;;;;;;31.45;17.80;;;;;;;-4.58;88.27;99839.84;7397786;19;20014;-68
2023/01/19 04:41:23;;;;;;;43.40;22.15;;;;;;;-4.58;88.27;99840.69;7396157;19;20015;-68
2023/01/19 04:43:51;;;;;;;39.22;19.73;;;;;;;-4.56;88.20;99843.31;7393669;19;20014;-68
2023/01/19 04:46:20;;;;;;;34.67;18.80;;;;;;;-4.55;88.43;99845.03;7397460;19;20023;-68
2023/01/19 04:48:51;;;;;;;29.13;17.73;;;;;;;-4.55;88.16;99839.91;7397224;19;20014;-68
2023/01/19 04:51:20;;;;;;;33.45;18.73;;;;;;;-4.55;88.21;99847.59;7395468;19;20454;-68
2023/01/19 04:53:48;;;;;;;29.92;16.27;;;;;;;-4.54;88.24;99851.03;7395610;19;20031;-68
2023/01/19 04:56:17;;;;;;;23.05;13.90;;;;;;;-4.55;88.22;99845.03;7397217;19;20091;-69
2023/01/19 04:58:45;;;;;;;22.85;14.93;;;;;;;-4.55;88.26;99845.03;7396659;19;20422;-68
2023/01/19 05:01:13;;;;;;;20.63;12.82;;;;;;;-4.55;88.04;99839.06;7395129;19;20028;-68
2023/01/19 05:03:42;;;;;;;25.45;14.35;;;;;;;-4.57;87.95;99844.16;7396263;19;20018;-69
2023/01/19 05:06:13;;;;;;;23.25;14.13;;;;;;;-4.56;88.05;99834.75;7394414;19;20035;-68
2023/01/19 05:08:41;;;;;;;24.58;14.50;;;;;;;-4.56;87.94;99845.00;7397171;19;20023;-69
2023/01/19 05:11:10;;;;;;;30.27;16.15;;;;;;;-4.57;87.77;99844.16;7394449;19;20069;-68
2023/01/19 05:13:38;;;;;;;23.90;14.20;;;;;;;-4.58;87.97;99840.69;7397389;19;20074;-72
2023/01/19 05:16:08;;;;;;;17.38;11.95;;;;;;;-4.60;87.94;99839.81;7396571;19;20035;-71
2023/01/19 05:18:37;;;;;;;22.48;13.30;;;;;;;-4.58;87.65;99850.09;7396556;19;20010;-71
2023/01/19 05:21:05;;;;;;;23.73;12.63;;;;;;;-4.56;88.08;99848.44;7395457;19;20091;-71
2023/01/19 05:23:37;;;;;;;16.60;11.68;;;;;;;-4.55;87.62;99846.72;7395459;19;20073;-71
2023/01/19 05:26:05;;;;;;;22.50;12.93;;;;;;;-4.53;87.80;99861.31;7398632;19;20035;-71
2023/01/19 05:28:34;;;;;;;24.83;12.63;;;;;;;-4.53;87.72;99871.53;7396225;19;20070;-71
2023/01/19 05:31:03;;;;;;;21.13;12.40;;;;;;;-4.52;87.46;99869.88;7396128;19;20035;-71
2023/01/19 05:33:31;;;;;;;20.38;11.57;;;;;;;-4.52;87.61;99870.72;7394930;19;20388;-72
2023/01/19 05:36:00;;;;;;;23.70;12.25;;;;;;;-4.52;87.27;99875.00;7395853;19;20040;-71
2023/01/19 05:38:28;;;;;;;18.65;11.30;;;;;;;-4.51;87.35;99876.69;7395179;19;20018;-70
2023/01/19 05:41:01;;;;;;;19.75;11.80;;;;;;;-4.50;87.38;99875.88;7394980;19;20015;-71
2023/01/19 05:43:30;;;;;;;16.00;10.70;;;;;;;-4.50;87.24;99876.75;7396039;19;20030;-71
2023/01/19 05:45:58;;;;;;;17.50;10.52;;;;;;;-4.50;87.21;99869.06;7395309;19;20398;-71
2023/01/19 05:48:27;;;;;;;19.00;10.73;;;;;;;-4.48;86.94;99867.41;7395419;19;20022;-71
2023/01/19 05:51:00;;;;;;;16.17;10.05;;;;;;;-4.46;86.76;99864.88;7394120;19;20082;-71
2023/01/19 05:53:29;;;;;;;21.63;10.52;;;;;;;-4.45;86.45;99870.06;7394927;19;20339;-70
2023/01/19 05:56:04;;;;;;;16.70;9.13;;;;;;;-4.42;86.24;99866.72;7394916;19;20074;-70
2023/01/19 05:58:33;;;;;;;15.50;9.48;;;;;;;-4.42;86.28;99867.56;7393350;19;20063;-71
2023/01/19 06:01:05;;;;;;;14.77;10.80;;;;;;;-4.40;86.03;99869.28;7392748;19;20030;-71
2023/01/19 06:03:33;;;;;;;16.25;9.52;;;;;;;-4.39;86.08;99868.47;7393188;19;20014;-71
2023/01/19 06:06:02;;;;;;;15.45;8.27;;;;;;;-4.38;85.39;99865.09;7393739;19;20018;-71
2023/01/19 06:08:38;;;;;;;19.30;9.45;;;;;;;-4.38;85.30;99878.75;7393153;19;20395;-71
2023/01/19 06:11:10;;;;;;;15.73;9.13;;;;;;;-4.39;85.29;99877.00;7394779;19;20074;-72
2023/01/19 06:13:38;;;;;;;15.88;8.77;;;;;;;-4.38;85.88;99886.44;7393621;19;20078;-73
2023/01/19 06:16:08;;;;;;;13.90;8.50;;;;;;;-4.37;85.28;99879.59;7392262;19;20022;-70
2023/01/19 06:18:37;;;;;;;12.80;7.60;;;;;;;-4.38;85.56;99880.47;7394279;19;20390;-70
2023/01/19 06:21:06;;;;;;;13.63;9.23;;;;;;;-4.40;85.40;99875.28;7392367;19;20035;-72
2023/01/19 06:23:36;;;;;;;14.32;7.95;;;;;;;-4.40;85.06;99884.66;7391720;19;20426;-71
2023/01/19 06:26:05;;;;;;;11.68;7.95;;;;;;;-4.44;85.22;99883.72;7393417;19;20090;-71
2023/01/19 06:28:36;;;;;;;13.85;8.45;;;;;;;-4.45;85.03;99892.22;7391032;19;20015;-71
2023/01/19 06:31:12;;;;;;;13.18;9.20;;;;;;;-4.48;85.17;99892.16;7393631;19;20039;-70
2023/01/19 06:33:40;;;;;;;15.68;8.43;;;;;;;-4.49;85.15;99896.38;7392255;19;20043;-72
2023/01/19 06:36:09;;;;;;;14.45;8.75;;;;;;;-4.52;85.26;99898.88;7393624;19;20086;-70
2023/01/19 06:38:38;;;;;;;15.10;9.10;;;;;;;-4.56;84.79;99894.53;7393752;19;20015;-71
2023/01/19 06:41:07;;;;;;;14.90;9.10;;;;;;;-4.59;84.85;99899.53;7392780;19;20505;-72
2023/01/19 06:43:38;;;;;;;16.35;8.63;;;;;;;-4.67;84.89;99885.69;7391489;19;20082;-70
2023/01/19 06:46:07;;;;;;;14.20;9.18;;;;;;;-4.70;84.56;99888.16;7393872;19;20014;-70
2023/01/19 06:48:35;;;;;;;14.48;8.95;;;;;;;-4.73;84.54;99895.78;7393732;19;20018;-70
2023/01/19 06:51:04;;;;;;;16.05;8.95;;;;;;;-4.81;84.57;99893.88;7393893;19;20023;-70
2023/01/19 06:53:33;;;;;;;12.70;8.43;;;;;;;-4.83;85.13;99892.94;7393374;19;20022;-71
2023/01/19 06:56:02;;;;;;;15.80;8.25;;;;;;;-4.86;84.99;99903.13;7393761;19;20074;-71
2023/01/19 06:58:33;;;;;;;11.80;8.60;;;;;;;-4.89;85.14;99902.16;7393408;19;20026;-71
2023/01/19 07:01:06;;;;;;;17.45;8.52;;;;;;;-4.93;85.29;99899.53;7392248;19;20029;-72
2023/01/19 07:03:37;;;;;;;15.93;8.47;;;;;;;-5.00;84.61;99896.75;7391128;19;20086;-71
2023/01/19 07:06:08;;;;;;;17.75;9.48;;;;;;;-5.02;84.49;99898.41;7396044;19;20018;-71
2023/01/19 07:08:37;;;;;;;17.35;11.35;;;;;;;-5.04;85.16;99900.03;7400785;19;20014;-71
2023/01/19 07:11:08;;;;;;;16.33;8.25;;;;;;;-5.07;85.29;99904.25;7400408;19;20039;-72
2023/01/19 07:13:37;;;;;;;13.50;8.55;;;;;;;-5.09;85.23;99905.91;7399247;19;20422;-71
2023/01/19 07:16:11;;;;;;;15.85;10.27;;;;;;;-5.11;85.27;99910.09;7400416;19;20086;-71
2023/01/19 07:18:41;;;;;;;13.32;8.77;;;;;;;-5.13;85.43;99924.56;7397698;19;20088;-72
2023/01/19 07:21:10;;;;;;;17.02;9.48;;;;;;;-5.15;85.55;99931.31;7399973;19;20436;-69
2023/01/19 07:23:39;;;;;;;15.43;9.70;;;;;;;-5.15;85.67;99933.00;7397444;19;20086;-71
2023/01/19 07:26:07;;;;;;;16.15;8.93;;;;;;;-5.16;85.59;99932.13;7399964;19;20019;-71
2023/01/19 07:28:36;;;;;;;17.20;9.68;;;;;;;-5.17;85.38;99930.38;7399456;19;20074;-71
2023/01/19 07:31:05;;;;;;;20.08;9.95;;;;;;;-5.17;85.45;99932.94;7399396;19;20018;-70
2023/01/19 07:33:36;;;;;;;15.57;8.82;;;;;;;-5.16;85.69;99936.38;7399066;19;20034;-70
2023/01/19 07:36:04;;;;;;;14.55;9.57;;;;;;;-5.16;85.70;99936.38;7396843;19;20074;-70
2023/01/19 07:38:33;;;;;;;14.35;9.40;;;;;;;-5.16;85.60;99939.78;7399515;19;20220;-70
2023/01/19 07:41:02;;;;;;;14.55;9.82;;;;;;;-5.15;85.59;99945.78;7399564;19;20086;-72
2023/01/19 07:43:31;;;;;;;12.52;8.98;;;;;;;-5.20;85.63;99935.41;7396951;19;20560;-70
2023/01/19 07:46:00;;;;;;;15.90;10.02;;;;;;;-5.15;85.82;99943.25;7399782;19;20074;-70
2023/01/19 07:48:29;;;;;;;15.35;9.55;;;;;;;-5.16;85.44;99942.34;7398979;19;20541;-71
2023/01/19 07:51:07;;;;;;;16.33;9.95;;;;;;;-5.17;85.71;99945.72;7398615;19;20014;-70
2023/01/19 07:53:36;;;;;;;16.15;10.65;;;;;;;-5.14;85.55;99953.50;7396924;19;20099;-71
2023/01/19 07:56:06;;;;;;;13.18;9.45;;;;;;;-5.16;85.78;99950.03;7399021;19;20033;-70
2023/01/19 07:58:34;;;;;;;17.20;10.48;;;;;;;-5.13;85.59;99956.91;7398747;19;20074;-72
2023/01/19 08:01:07;;;;;;;15.48;9.80;;;;;;;-5.14;85.73;99956.06;7397518;19;20011;-71
2023/01/19 08:03:36;;;;;;;17.13;10.48;;;;;;;-5.12;85.83;99956.09;7396774;19;20035;-72
2023/01/19 08:06:08;;;;;;;20.88;10.90;;;;;;;-5.10;86.14;99960.44;7398997;19;20082;-72
2023/01/19 08:08:36;;;;;;;18.75;11.02;;;;;;;-5.09;86.25;99958.75;7398931;19;20115;-71
2023/01/19 08:11:05;;;;;;;18.38;10.43;;;;;;;-5.10;86.04;99959.59;7398602;19;20031;-71
2023/01/19 08:13:34;;;;;;;18.75;10.68;;;;;;;-5.04;86.34;99971.66;7397768;19;20036;-71
2023/01/19 08:16:02;;;;;;;19.88;11.63;;;;;;;-5.06;86.21;99953.72;7397950;19;20091;-71
2023/01/19 08:18:30;;;;;;;19.33;12.32;;;;;;;-4.99;86.29;99965.88;7398369;19;20010;-71
2023/01/19 08:21:00;;;;;;;27.13;15.23;;;;;;;-4.96;86.22;99971.06;7397837;19;20505;-71
2023/01/19 08:23:31;;;;;;;30.27;16.17;;;;;;;-4.93;86.48;99970.28;7396512;19;20035;-71
2023/01/19 08:26:00;;;;;;;26.67;15.40;;;;;;;-4.90;86.33;99978.06;7398230;19;20078;-72
2023/01/19 08:28:28;;;;;;;20.75;12.30;;;;;;;-4.88;86.25;99973.84;7397632;19;20011;-71
2023/01/19 08:30:58;;;;;;;20.58;12.40;;;;;;;-4.84;86.19;99979.91;7397026;19;20022;-71
2023/01/19 08:33:26;;;;;;;19.92;11.35;;;;;;;-4.83;86.34;99974.84;7397854;19;20019;-71
2023/01/19 08:35:55;;;;;;;19.85;11.80;;;;;;;-4.78;86.16;99980.97;7397441;19;20082;-71
2023/01/19 08:38:24;;;;;;;17.63;11.45;;;;;;;-4.74;86.50;99976.78;7397579;19;20086;-71
2023/01/19 08:40:55;;;;;;;16.65;10.82;;;;;;;-4.69;86.48;99982.03;7397647;19;20025;-72
2023/01/19 08:43:23;;;;;;;17.55;11.43;;;;;;;-4.65;86.41;99976.19;7395695;19;20560;-71
2023/01/19 08:45:55;;;;;;;21.25;11.32;;;;;;;-4.61;86.47;99983.13;7396519;19;20477;-72
2023/01/19 08:48:24;;;;;;;18.48;11.98;;;;;;;-4.56;86.55;99976.44;7397686;19;20014;-71
2023/01/19 08:50:54;;;;;;;19.88;12.02;;;;;;;-4.52;86.44;99974.84;7396773;19;20463;-71
2023/01/19 08:53:24;;;;;;;20.02;11.68;;;;;;;-4.48;86.61;99980.06;7395173;19;20022;-72
2023/01/19 08:55:58;;;;;;;20.80;11.88;;;;;;;-4.43;86.46;99975.06;7397887;19;20074;-71
2023/01/19 08:58:27;;;;;;;17.95;11.45;;;;;;;-4.38;86.65;99977.78;7399253;19;20015;-72
2023/01/19 09:00:56;;;;;;;18.58;10.98;;;;;;;-4.34;86.31;99987.25;7395842;19;20006;-71
2023/01/19 09:03:24;;;;;;;22.05;12.40;;;;;;;-4.32;86.45;99986.47;7395876;19;20023;-72
2023/01/19 09:05:53;;;;;;;18.52;11.30;;;;;;;-4.24;86.55;99986.66;7396299;19;20529;-71
2023/01/19 09:08:21;;;;;;;18.00;11.02;;;;;;;-4.20;86.61;99993.59;7396800;19;20085;-72
2023/01/19 09:10:51;;;;;;;19.92;13.10;;;;;;;-4.15;86.60;99993.72;7394806;19;20078;-70
2023/01/19 09:13:23;;;;;;;18.02;11.45;;;;;;;-4.10;86.56;99989.59;7396131;19;20036;-71
2023/01/19 09:15:51;;;;;;;19.27;11.70;;;;;;;-4.04;86.44;99991.44;7396444;19;20502;-69
2023/01/19 09:18:21;;;;;;;18.40;12.05;;;;;;;-4.01;86.73;100001.78;7395848;19;20022;-69
2023/01/19 09:20:51;;;;;;;18.67;13.02;;;;;;;-3.96;86.50;100002.75;7396321;19;20014;-71
2023/01/19 09:23:23;;;;;;;23.70;13.73;;;;;;;-3.90;87.97;99997.78;7397072;19;20079;-68
2023/01/19 09:25:58;;;;;;;23.00;12.65;;;;;;;-3.82;88.00;100003.94;7394985;19;20018;-68
2023/01/19 09:28:30;;;;;;;20.45;13.38;;;;;;;-3.70;89.25;99997.38;7395375;19;20036;-67
2023/01/19 09:30:59;;;;;;;24.75;14.93;;;;;;;-3.58;89.48;99996.84;7395939;19;20025;-68
2023/01/19 09:33:28;;;;;;;20.45;13.18;;;;;;;-3.48;89.15;99999.63;7394960;19;20077;-67
2023/01/19 09:35:57;;;;;;;21.73;14.00;;;;;;;-3.36;88.35;99993.94;7395691;19;20019;-66
2023/01/19 09:38:25;;;;;;;23.92;14.13;;;;;;;-3.29;88.28;100000.06;7396544;19;20014;-72
2023/01/19 09:40:57;;;;;;;27.25;16.02;;;;;;;-3.18;88.19;100008.88;7398851;19;20667;-66
2023/01/19 09:43:38;;;;;;;20.98;14.30;;;;;;;-3.13;87.58;99999.56;7395182;19;20019;-66
2023/01/19 09:46:12;;;;;;;18.80;13.25;;;;;;;-3.05;87.21;100001.44;7395754;19;20553;-66
2023/01/19 09:48:55;;;;;;;20.20;12.93;;;;;;;-2.97;86.85;100002.44;7396119;19;20037;-67
2023/01/19 09:51:25;;;;;;;21.55;13.48;;;;;;;-2.92;86.96;100000.84;7395950;19;20015;-68
2023/01/19 09:53:58;;;;;;;18.33;13.88;;;;;;;-2.86;87.03;99998.41;7395060;19;20039;-68
2023/01/19 09:56:28;;;;;;;22.63;13.75;;;;;;;-2.79;86.83;100007.13;7395953;19;20091;-68
2023/01/19 09:59:00;;;;;;;23.17;13.75;;;;;;;-2.72;86.73;99992.72;7395073;19;20078;-69
2023/01/19 10:01:40;;;;;;;22.08;15.18;;;;;;;-2.66;86.66;99990.25;7393198;19;20014;-70
2023/01/19 10:04:29;;;;;;;23.48;14.13;;;;;;;-2.62;86.52;99987.78;7394328;19;20153;-69
2023/01/19 10:07:08;;;;;;;21.85;14.73;;;;;;;-2.56;86.83;99976.75;7394186;19;20039;-70
2023/01/19 10:09:46;;;;;;;23.20;14.95;;;;;;;-2.49;86.83;99981.19;7394672;19;20386;-70
2023/01/19 10:12:22;;;;;;;21.75;13.63;;;;;;;-2.43;86.73;99990.69;7394360;19;20029;-69
2023/01/19 10:15:02;;;;;;;22.95;16.40;;;;;;;-2.37;87.04;99979.69;7392792;19;20036;-68
2023/01/19 10:17:45;;;;;;;24.90;17.38;;;;;;;-2.25;86.81;99984.16;7392605;19;20021;-68
2023/01/19 10:20:21;;;;;;;29.83;16.88;;;;;;;-2.18;86.62;99979.16;7394405;19;20018;-68
2023/01/19 10:22:51;;;;;;;22.13;14.85;;;;;;;-2.11;86.79;99977.59;7394229;19;20023;-68
2023/01/19 10:25:25;;;;;;;21.52;15.07;;;;;;;-2.04;86.24;99973.41;7393529;19;20036;-68
2023/01/19 10:27:53;;;;;;;25.10;16.08;;;;;;;-1.99;86.24;99974.34;7393966;19;20022;-68
2023/01/19 10:30:27;;;;;;;24.58;17.00;;;;;;;-1.94;86.31;99967.59;7392247;19;20284;-68
2023/01/19 10:32:56;;;;;;;22.50;16.20;;;;;;;-1.89;86.30;99971.09;7392438;19;20074;-67
2023/01/19 10:35:26;;;;;;;20.98;14.00;;;;;;;-1.83;86.10;99980.63;7394450;19;20019;-70
2023/01/19 10:37:56;;;;;;;23.10;15.00;;;;;;;-1.80;85.46;99978.94;7393620;19;20502;-68
2023/01/19 10:40:32;;;;;;;19.92;15.05;;;;;;;-1.76;85.28;99977.28;7393820;19;20066;-70
2023/01/19 10:43:01;;;;;;;27.45;17.00;;;;;;;-1.74;85.55;99982.50;7400631;19;20070;-68
2023/01/19 10:45:34;;;;;;;27.83;15.82;;;;;;;-1.71;85.47;99983.38;7398779;19;20094;-69
2023/01/19 10:48:08;;;;;;;23.15;14.93;;;;;;;-1.72;85.24;99967.94;7401911;19;20014;-70
2023/01/19 10:50:40;;;;;;;24.58;16.60;;;;;;;-1.63;85.63;99980.94;7397956;19;20023;-68
2023/01/19 10:53:22;;;;;;;30.30;17.05;;;;;;;-1.59;85.04;99981.84;7400563;19;20022;-71
2023/01/19 10:56:13;;;;;;;25.65;16.23;;;;;;;-1.57;85.02;99975.88;7401038;19;20032;-68
2023/01/19 10:58:42;;;;;;;23.30;15.70;;;;;;;-1.53;85.17;99969.94;7400575;19;20026;-69
2023/01/19 11:01:21;;;;;;;21.70;14.38;;;;;;;-1.48;85.06;99970.88;7399613;19;20384;-70
2023/01/19 11:03:50;;;;;;;19.70;14.30;;;;;;;-1.46;84.81;99958.03;7401001;19;20086;-68
2023/01/19 11:06:24;;;;;;;23.90;15.75;;;;;;;-1.44;84.74;99958.06;7400308;19;20099;-69
2023/01/19 11:08:54;;;;;;;18.98;13.65;;;;;;;-1.38;84.60;99965.84;7397778;19;20037;-72
2023/01/19 11:11:25;;;;;;;20.35;14.55;;;;;;;-1.38;84.08;99953.88;7400131;19;20028;-68
2023/01/19 11:14:12;;;;;;;20.15;14.15;;;;;;;-1.33;84.01;99946.19;7399803;19;20022;-70
2023/01/19 11:16:48;;;;;;;22.48;15.07;;;;;;;-1.28;84.48;99952.28;7399750;19;20519;-70
2023/01/19 11:19:22;;;;;;;20.60;13.77;;;;;;;-1.24;84.37;99953.19;7400234;19;20501;-70
2023/01/19 11:21:54;;;;;;;22.83;14.55;;;;;;;-1.20;84.61;99960.97;7401146;19;20018;-69
2023/01/19 11:24:24;;;;;;;20.75;14.52;;;;;;;-1.16;84.40;99957.59;7397810;19;20032;-70
2023/01/19 11:27:01;;;;;;;21.77;14.70;;;;;;;-1.13;83.97;99958.50;7400104;19;20098;-70
2023/01/19 11:29:30;;;;;;;26.30;14.32;;;;;;;-1.10;83.85;99961.97;7398296;19;20055;-70
2023/01/19 11:32:12;;;;;;;85.10;42.80;;;;;;;-1.08;83.90;99954.25;7399813;19;20015;-73
2023/01/19 11:34:44;;;;;;;24.02;15.88;;;;;;;-1.05;83.77;99954.28;7398006;19;20023;-70
2023/01/19 11:37:29;;;;;;;19.27;13.98;;;;;;;-1.02;83.69;99944.06;7398566;19;20035;-69
2023/01/19 11:40:01;;;;;;;20.27;13.48;;;;;;;-0.98;83.29;99945.81;7400749;19;20015;-71
2023/01/19 11:42:36;;;;;;;21.33;14.85;;;;;;;-0.97;83.25;99950.13;7399568;19;20346;-70
2023/01/19 11:45:06;;;;;;;;;;;;;;;-0.95;82.94;99943.25;7398626;19;20018;-69
2023/01/19 11:47:43;;;;;;;19.83;13.48;;;;;;;-0.92;83.41;99939.84;7399401;19;19982;-70